sensor_id;sensor_type;location;lat;lon;timestamp;P1;durP1;ratioP1;P2;durP2;ratioP2
9940;SDS011;5009;50.656;7.188;2022-12-20T03:57:15;5.80;;;4.83;;
9940;SDS011;5009;50.656;7.188;2022-12-20T03:59:41;6.60;;;5.27;;
9940;SDS011;5009;50.656;7.188;2022-12-20T04:02:07;6.37;;;5.77;;
9940;SDS011;5009;50.656;7.188;2022-12-20T04:04:33;5.63;;;4.93;;
9940;SDS011;5009;50.656;7.188;2022-12-20T04:06:58;9.03;;;5.40;;
9940;SDS011;5009;50.656;7.188;2022-12-20T04:09:24;6.93;;;4.50;;
9940;SDS011;5009;50.656;7.188;2022-12-20T04:11:50;7.40;;;5.53;;
9940;SDS011;5009;50.656;7.188;2022-12-20T04:14:15;7.53;;;5.17;;
9940;SDS011;5009;50.656;7.188;2022-12-20T04:16:41;5.60;;;4.97;;
9940;SDS011;5009;50.656;7.188;2022-12-20T04:19:06;6.73;;;5.10;;
9940;SDS011;5009;50.656;7.188;2022-12-20T04:21:33;5.03;;;4.53;;
9940;SDS011;5009;50.656;7.188;2022-12-20T04:24:00;4.43;;;4.03;;
9940;SDS011;5009;50.656;7.188;2022-12-20T04:26:27;4.83;;;3.93;;
9940;SDS011;5009;50.656;7.188;2022-12-20T04:28:53;4.20;;;3.77;;
9940;SDS011;5009;50.656;7.188;2022-12-20T04:31:19;4.17;;;3.50;;
9940;SDS011;5009;50.656;7.188;2022-12-20T04:33:45;5.53;;;3.80;;
9940;SDS011;5009;50.656;7.188;2022-12-20T04:36:11;5.10;;;4.00;;
9940;SDS011;5009;50.656;7.188;2022-12-20T04:38:37;7.13;;;3.87;;
9940;SDS011;5009;50.656;7.188;2022-12-20T04:41:02;4.73;;;4.23;;
9940;SDS011;5009;50.656;7.188;2022-12-20T04:43:28;4.20;;;3.83;;
9940;SDS011;5009;50.656;7.188;2022-12-20T04:45:54;5.03;;;3.73;;
9940;SDS011;5009;50.656;7.188;2022-12-20T04:48:21;5.27;;;3.77;;
9940;SDS011;5009;50.656;7.188;2022-12-20T04:50:49;4.27;;;3.57;;
9940;SDS011;5009;50.656;7.188;2022-12-20T04:53:15;5.80;;;3.87;;
9940;SDS011;5009;50.656;7.188;2022-12-20T04:55:59;4.37;;;3.70;;
9940;SDS011;5009;50.656;7.188;2022-12-20T04:58:25;4.67;;;3.63;;
9940;SDS011;5009;50.656;7.188;2022-12-20T05:00:51;3.60;;;3.30;;
9940;SDS011;5009;50.656;7.188;2022-12-20T05:03:17;5.13;;;3.17;;
9940;SDS011;5009;50.656;7.188;2022-12-20T05:05:43;3.90;;;3.50;;
9940;SDS011;5009;50.656;7.188;2022-12-20T05:08:09;3.73;;;3.30;;
9940;SDS011;5009;50.656;7.188;2022-12-20T05:10:35;4.47;;;3.70;;
9940;SDS011;5009;50.656;7.188;2022-12-20T05:13:01;3.93;;;3.53;;
9940;SDS011;5009;50.656;7.188;2022-12-20T05:15:26;4.17;;;3.77;;
9940;SDS011;5009;50.656;7.188;2022-12-20T05:17:52;3.60;;;3.30;;
9940;SDS011;5009;50.656;7.188;2022-12-20T05:20:23;5.10;;;3.93;;
9940;SDS011;5009;50.656;7.188;2022-12-20T05:22:52;4.70;;;3.47;;
9940;SDS011;5009;50.656;7.188;2022-12-20T05:25:37;4.97;;;4.10;;
9940;SDS011;5009;50.656;7.188;2022-12-20T05:28:25;6.00;;;3.67;;
9940;SDS011;5009;50.656;7.188;2022-12-20T05:30:50;4.70;;;3.87;;
9940;SDS011;5009;50.656;7.188;2022-12-20T05:33:16;4.63;;;3.40;;
9940;SDS011;5009;50.656;7.188;2022-12-20T05:35:41;4.70;;;3.90;;
9940;SDS011;5009;50.656;7.188;2022-12-20T05:38:07;3.93;;;3.53;;
9940;SDS011;5009;50.656;7.188;2022-12-20T05:40:32;3.87;;;3.50;;
9940;SDS011;5009;50.656;7.188;2022-12-20T05:42:58;4.07;;;3.73;;
9940;SDS011;5009;50.656;7.188;2022-12-20T05:45:24;4.43;;;3.67;;
9940;SDS011;5009;50.656;7.188;2022-12-20T05:47:50;4.27;;;3.50;;
9940;SDS011;5009;50.656;7.188;2022-12-20T05:50:16;4.53;;;3.70;;
9940;SDS011;5009;50.656;7.188;2022-12-20T05:52:42;5.50;;;3.67;;
9940;SDS011;5009;50.656;7.188;2022-12-20T05:55:07;5.63;;;3.50;;
9940;SDS011;5009;50.656;7.188;2022-12-20T05:57:33;6.87;;;3.40;;
9940;SDS011;5009;50.656;7.188;2022-12-20T05:59:59;4.47;;;3.20;;
9940;SDS011;5009;50.656;7.188;2022-12-20T06:02:24;5.43;;;3.70;;
9940;SDS011;5009;50.656;7.188;2022-12-20T06:04:50;4.20;;;3.00;;
9940;SDS011;5009;50.656;7.188;2022-12-20T06:07:15;3.60;;;3.30;;
9940;SDS011;5009;50.656;7.188;2022-12-20T06:09:41;4.90;;;3.70;;
9940;SDS011;5009;50.656;7.188;2022-12-20T06:12:06;3.50;;;3.20;;
9940;SDS011;5009;50.656;7.188;2022-12-20T06:14:32;5.10;;;3.60;;
9940;SDS011;5009;50.656;7.188;2022-12-20T06:16:57;3.13;;;2.90;;
9940;SDS011;5009;50.656;7.188;2022-12-20T06:19:23;3.23;;;2.93;;
9940;SDS011;5009;50.656;7.188;2022-12-20T06:21:48;3.73;;;3.27;;
9940;SDS011;5009;50.656;7.188;2022-12-20T06:24:14;4.13;;;3.73;;
9940;SDS011;5009;50.656;7.188;2022-12-20T06:26:39;3.83;;;3.03;;
9940;SDS011;5009;50.656;7.188;2022-12-20T06:29:05;4.07;;;3.47;;
9940;SDS011;5009;50.656;7.188;2022-12-20T06:31:33;5.80;;;3.53;;
9940;SDS011;5009;50.656;7.188;2022-12-20T06:33:58;4.13;;;3.60;;
9940;SDS011;5009;50.656;7.188;2022-12-20T06:36:24;4.73;;;3.73;;
9940;SDS011;5009;50.656;7.188;2022-12-20T06:38:49;4.63;;;3.60;;
9940;SDS011;5009;50.656;7.188;2022-12-20T06:41:15;5.67;;;3.60;;
9940;SDS011;5009;50.656;7.188;2022-12-20T06:43:41;3.83;;;3.50;;
9940;SDS011;5009;50.656;7.188;2022-12-20T06:46:07;4.07;;;3.60;;
9940;SDS011;5009;50.656;7.188;2022-12-20T06:48:32;6.07;;;3.60;;
9940;SDS011;5009;50.656;7.188;2022-12-20T06:50:58;4.77;;;3.67;;
9940;SDS011;5009;50.656;7.188;2022-12-20T06:53:23;5.70;;;4.00;;
9940;SDS011;5009;50.656;7.188;2022-12-20T06:55:49;5.57;;;4.10;;
9940;SDS011;5009;50.656;7.188;2022-12-20T06:58:18;5.57;;;4.20;;
9940;SDS011;5009;50.656;7.188;2022-12-20T07:00:44;4.30;;;3.90;;
9940;SDS011;5009;50.656;7.188;2022-12-20T07:03:10;5.63;;;3.73;;
9940;SDS011;5009;50.656;7.188;2022-12-20T07:05:36;4.60;;;3.60;;
9940;SDS011;5009;50.656;7.188;2022-12-20T07:08:01;5.00;;;3.67;;
9940;SDS011;5009;50.656;7.188;2022-12-20T07:10:29;3.50;;;3.20;;
9940;SDS011;5009;50.656;7.188;2022-12-20T07:12:55;4.10;;;3.60;;
9940;SDS011;5009;50.656;7.188;2022-12-20T07:15:21;6.50;;;4.03;;
9940;SDS011;5009;50.656;7.188;2022-12-20T07:17:46;5.40;;;4.30;;
9940;SDS011;5009;50.656;7.188;2022-12-20T07:20:12;5.40;;;3.70;;
9940;SDS011;5009;50.656;7.188;2022-12-20T07:22:38;4.73;;;4.20;;
9940;SDS011;5009;50.656;7.188;2022-12-20T07:25:04;4.40;;;4.00;;
9940;SDS011;5009;50.656;7.188;2022-12-20T07:27:29;4.73;;;3.87;;
9940;SDS011;5009;50.656;7.188;2022-12-20T07:29:55;4.70;;;3.97;;
9940;SDS011;5009;50.656;7.188;2022-12-20T07:32:21;4.90;;;3.93;;
9940;SDS011;5009;50.656;7.188;2022-12-20T07:34:46;4.80;;;4.20;;
9940;SDS011;5009;50.656;7.188;2022-12-20T07:37:12;6.33;;;4.40;;
9940;SDS011;5009;50.656;7.188;2022-12-20T07:39:37;4.40;;;4.07;;
9940;SDS011;5009;50.656;7.188;2022-12-20T07:42:03;4.33;;;3.87;;
9940;SDS011;5009;50.656;7.188;2022-12-20T07:44:29;6.77;;;4.07;;
9940;SDS011;5009;50.656;7.188;2022-12-20T07:46:54;4.90;;;4.27;;
9940;SDS011;5009;50.656;7.188;2022-12-20T07:49:20;5.77;;;3.90;;
9940;SDS011;5009;50.656;7.188;2022-12-20T07:51:49;4.57;;;3.53;;
9940;SDS011;5009;50.656;7.188;2022-12-20T07:54:27;8.80;;;3.77;;
9940;SDS011;5009;50.656;7.188;2022-12-20T07:56:56;7.83;;;3.83;;
9940;SDS011;5009;50.656;7.188;2022-12-20T07:59:25;4.83;;;3.10;;
9940;SDS011;5009;50.656;7.188;2022-12-20T08:01:55;4.00;;;3.23;;
9940;SDS011;5009;50.656;7.188;2022-12-20T08:04:22;4.90;;;3.40;;
9940;SDS011;5009;50.656;7.188;2022-12-20T08:06:51;3.43;;;3.10;;
9940;SDS011;5009;50.656;7.188;2022-12-20T08:09:19;3.80;;;3.40;;
9940;SDS011;5009;50.656;7.188;2022-12-20T08:11:47;5.97;;;3.77;;
9940;SDS011;5009;50.656;7.188;2022-12-20T08:14:14;5.83;;;3.30;;
9940;SDS011;5009;50.656;7.188;2022-12-20T08:16:42;3.73;;;3.40;;
9940;SDS011;5009;50.656;7.188;2022-12-20T08:19:08;4.50;;;3.60;;
9940;SDS011;5009;50.656;7.188;2022-12-20T08:21:34;4.53;;;3.83;;
9940;SDS011;5009;50.656;7.188;2022-12-20T08:23:59;3.97;;;3.53;;
9940;SDS011;5009;50.656;7.188;2022-12-20T08:26:25;5.23;;;3.90;;
9940;SDS011;5009;50.656;7.188;2022-12-20T08:28:51;4.07;;;3.40;;
9940;SDS011;5009;50.656;7.188;2022-12-20T08:31:17;3.90;;;3.60;;
9940;SDS011;5009;50.656;7.188;2022-12-20T08:33:43;5.83;;;3.83;;
9940;SDS011;5009;50.656;7.188;2022-12-20T08:36:10;5.23;;;3.57;;
9940;SDS011;5009;50.656;7.188;2022-12-20T08:38:37;4.40;;;3.43;;
9940;SDS011;5009;50.656;7.188;2022-12-20T08:41:03;5.77;;;3.87;;
9940;SDS011;5009;50.656;7.188;2022-12-20T08:43:31;4.37;;;3.63;;
9940;SDS011;5009;50.656;7.188;2022-12-20T08:45:56;4.47;;;3.30;;
9940;SDS011;5009;50.656;7.188;2022-12-20T08:48:22;4.57;;;3.57;;
9940;SDS011;5009;50.656;7.188;2022-12-20T08:50:54;4.60;;;3.33;;
9940;SDS011;5009;50.656;7.188;2022-12-20T08:53:21;6.00;;;3.90;;
9940;SDS011;5009;50.656;7.188;2022-12-20T08:55:46;5.00;;;3.73;;
9940;SDS011;5009;50.656;7.188;2022-12-20T08:58:12;4.20;;;3.43;;
9940;SDS011;5009;50.656;7.188;2022-12-20T09:00:39;4.03;;;3.03;;
9940;SDS011;5009;50.656;7.188;2022-12-20T09:03:05;3.53;;;3.23;;
9940;SDS011;5009;50.656;7.188;2022-12-20T09:05:32;3.87;;;3.27;;
9940;SDS011;5009;50.656;7.188;2022-12-20T09:07:57;4.90;;;3.37;;
9940;SDS011;5009;50.656;7.188;2022-12-20T09:10:23;4.27;;;2.60;;
9940;SDS011;5009;50.656;7.188;2022-12-20T09:12:48;4.80;;;3.00;;
9940;SDS011;5009;50.656;7.188;2022-12-20T09:15:14;2.73;;;2.53;;
9940;SDS011;5009;50.656;7.188;2022-12-20T09:17:40;4.23;;;3.60;;
9940;SDS011;5009;50.656;7.188;2022-12-20T09:20:05;5.70;;;3.37;;
9940;SDS011;5009;50.656;7.188;2022-12-20T09:22:31;4.83;;;3.47;;
9940;SDS011;5009;50.656;7.188;2022-12-20T09:24:57;3.70;;;3.30;;
9940;SDS011;5009;50.656;7.188;2022-12-20T09:27:22;5.07;;;3.53;;
9940;SDS011;5009;50.656;7.188;2022-12-20T09:29:48;3.30;;;2.83;;
9940;SDS011;5009;50.656;7.188;2022-12-20T09:32:13;3.20;;;2.90;;
9940;SDS011;5009;50.656;7.188;2022-12-20T09:34:39;3.77;;;3.20;;
9940;SDS011;5009;50.656;7.188;2022-12-20T09:37:04;5.50;;;3.70;;
9940;SDS011;5009;50.656;7.188;2022-12-20T09:39:30;4.73;;;3.37;;
9940;SDS011;5009;50.656;7.188;2022-12-20T09:41:56;3.73;;;3.27;;
9940;SDS011;5009;50.656;7.188;2022-12-20T09:44:23;9.83;;;3.70;;
9940;SDS011;5009;50.656;7.188;2022-12-20T09:46:52;3.47;;;2.83;;
9940;SDS011;5009;50.656;7.188;2022-12-20T09:49:20;3.90;;;2.80;;
9940;SDS011;5009;50.656;7.188;2022-12-20T09:54:40;3.03;;;2.63;;
9940;SDS011;5009;50.656;7.188;2022-12-20T09:59:57;4.40;;;2.63;;
9940;SDS011;5009;50.656;7.188;2022-12-20T10:02:23;2.37;;;2.20;;
9940;SDS011;5009;50.656;7.188;2022-12-20T10:04:50;3.23;;;2.67;;
9940;SDS011;5009;50.656;7.188;2022-12-20T10:07:37;4.20;;;2.57;;
9940;SDS011;5009;50.656;7.188;2022-12-20T10:10:24;4.50;;;2.57;;
9940;SDS011;5009;50.656;7.188;2022-12-20T10:13:19;3.07;;;2.67;;
9940;SDS011;5009;50.656;7.188;2022-12-20T10:18:29;2.50;;;2.30;;
9940;SDS011;5009;50.656;7.188;2022-12-20T10:23:42;4.80;;;2.33;;
9940;SDS011;5009;50.656;7.188;2022-12-20T10:26:15;2.97;;;2.43;;
9940;SDS011;5009;50.656;7.188;2022-12-20T10:28:41;2.40;;;2.23;;
9940;SDS011;5009;50.656;7.188;2022-12-20T10:31:16;3.47;;;2.33;;
9940;SDS011;5009;50.656;7.188;2022-12-20T10:33:42;2.97;;;2.40;;
9940;SDS011;5009;50.656;7.188;2022-12-20T10:36:25;4.70;;;2.77;;
9940;SDS011;5009;50.656;7.188;2022-12-20T10:39:00;3.10;;;2.80;;
9940;SDS011;5009;50.656;7.188;2022-12-20T10:41:33;2.57;;;2.20;;
9940;SDS011;5009;50.656;7.188;2022-12-20T10:44:03;4.37;;;2.80;;
9940;SDS011;5009;50.656;7.188;2022-12-20T10:46:41;4.07;;;2.50;;
9940;SDS011;5009;50.656;7.188;2022-12-20T10:51:57;3.07;;;2.30;;
9940;SDS011;5009;50.656;7.188;2022-12-20T10:54:36;3.40;;;2.47;;
9940;SDS011;5009;50.656;7.188;2022-12-20T10:57:19;3.13;;;2.57;;
9940;SDS011;5009;50.656;7.188;2022-12-20T10:59:52;4.93;;;2.40;;
9940;SDS011;5009;50.656;7.188;2022-12-20T11:02:25;4.50;;;3.13;;
9940;SDS011;5009;50.656;7.188;2022-12-20T11:07:56;5.97;;;3.23;;
9940;SDS011;5009;50.656;7.188;2022-12-20T11:11:09;4.23;;;2.93;;
9940;SDS011;5009;50.656;7.188;2022-12-20T11:13:35;4.50;;;2.90;;
9940;SDS011;5009;50.656;7.188;2022-12-20T11:16:01;3.47;;;2.50;;
9940;SDS011;5009;50.656;7.188;2022-12-20T11:21:17;6.87;;;4.30;;
9940;SDS011;5009;50.656;7.188;2022-12-20T11:24:17;9.37;;;4.03;;
9940;SDS011;5009;50.656;7.188;2022-12-20T11:29:38;3.77;;;2.70;;
9940;SDS011;5009;50.656;7.188;2022-12-20T11:32:25;3.00;;;2.60;;
9940;SDS011;5009;50.656;7.188;2022-12-20T11:38:00;4.80;;;3.00;;
9940;SDS011;5009;50.656;7.188;2022-12-20T11:51:21;5.57;;;3.00;;
9940;SDS011;5009;50.656;7.188;2022-12-20T11:56:37;2.60;;;2.40;;
9940;SDS011;5009;50.656;7.188;2022-12-20T11:59:50;3.47;;;2.83;;
9940;SDS011;5009;50.656;7.188;2022-12-20T12:02:08;2.67;;;2.43;;
9940;SDS011;5009;50.656;7.188;2022-12-20T12:04:47;4.23;;;2.50;;
9940;SDS011;5009;50.656;7.188;2022-12-20T12:07:20;2.80;;;2.40;;
9940;SDS011;5009;50.656;7.188;2022-12-20T12:09:58;4.10;;;2.30;;
9940;SDS011;5009;50.656;7.188;2022-12-20T12:12:31;4.03;;;2.73;;
9940;SDS011;5009;50.656;7.188;2022-12-20T12:17:58;2.50;;;1.93;;
9940;SDS011;5009;50.656;7.188;2022-12-20T12:26:27;3.93;;;2.50;;
9940;SDS011;5009;50.656;7.188;2022-12-20T12:28:59;3.10;;;2.80;;
9940;SDS011;5009;50.656;7.188;2022-12-20T12:31:41;3.37;;;2.53;;
9940;SDS011;5009;50.656;7.188;2022-12-20T12:34:34;2.90;;;2.47;;
9940;SDS011;5009;50.656;7.188;2022-12-20T12:43:05;4.73;;;2.60;;
9940;SDS011;5009;50.656;7.188;2022-12-20T12:45:57;4.13;;;2.63;;
9940;SDS011;5009;50.656;7.188;2022-12-20T12:50:58;5.03;;;2.40;;
9940;SDS011;5009;50.656;7.188;2022-12-20T12:53:42;3.23;;;2.63;;
9940;SDS011;5009;50.656;7.188;2022-12-20T12:59:39;3.47;;;2.60;;
9940;SDS011;5009;50.656;7.188;2022-12-20T13:11:50;3.63;;;2.97;;
9940;SDS011;5009;50.656;7.188;2022-12-20T13:16:47;6.83;;;2.90;;
9940;SDS011;5009;50.656;7.188;2022-12-20T13:21:56;3.10;;;2.80;;
9940;SDS011;5009;50.656;7.188;2022-12-20T13:27:15;3.30;;;2.30;;
9940;SDS011;5009;50.656;7.188;2022-12-20T13:29:52;4.47;;;2.77;;
9940;SDS011;5009;50.656;7.188;2022-12-20T13:40:34;2.83;;;2.60;;
9940;SDS011;5009;50.656;7.188;2022-12-20T13:45:50;3.97;;;3.07;;
9940;SDS011;5009;50.656;7.188;2022-12-20T13:51:25;4.47;;;3.37;;
9940;SDS011;5009;50.656;7.188;2022-12-20T13:53:59;4.47;;;3.67;;
9940;SDS011;5009;50.656;7.188;2022-12-20T13:58:55;3.37;;;2.70;;
9940;SDS011;5009;50.656;7.188;2022-12-20T14:01:24;3.77;;;2.80;;
9940;SDS011;5009;50.656;7.188;2022-12-20T14:03:50;3.30;;;2.43;;
9940;SDS011;5009;50.656;7.188;2022-12-20T14:06:17;4.57;;;2.90;;
9940;SDS011;5009;50.656;7.188;2022-12-20T14:08:49;3.33;;;2.30;;
9940;SDS011;5009;50.656;7.188;2022-12-20T14:11:22;3.70;;;2.70;;
9940;SDS011;5009;50.656;7.188;2022-12-20T14:13:53;3.13;;;2.37;;
9940;SDS011;5009;50.656;7.188;2022-12-20T14:16:27;2.90;;;2.20;;
9940;SDS011;5009;50.656;7.188;2022-12-20T14:19:04;4.63;;;2.43;;
9940;SDS011;5009;50.656;7.188;2022-12-20T14:21:35;2.47;;;2.27;;
9940;SDS011;5009;50.656;7.188;2022-12-20T14:24:04;5.00;;;2.80;;
9940;SDS011;5009;50.656;7.188;2022-12-20T14:26:37;4.57;;;2.60;;
9940;SDS011;5009;50.656;7.188;2022-12-20T14:29:09;3.57;;;2.47;;
9940;SDS011;5009;50.656;7.188;2022-12-20T14:31:40;4.27;;;2.70;;
9940;SDS011;5009;50.656;7.188;2022-12-20T14:36:41;2.93;;;2.73;;
9940;SDS011;5009;50.656;7.188;2022-12-20T14:41:53;5.53;;;2.90;;
9940;SDS011;5009;50.656;7.188;2022-12-20T14:44:21;3.13;;;2.77;;
9940;SDS011;5009;50.656;7.188;2022-12-20T14:46:51;4.10;;;2.67;;
9940;SDS011;5009;50.656;7.188;2022-12-20T14:49:22;5.20;;;2.77;;
9940;SDS011;5009;50.656;7.188;2022-12-20T14:54:30;5.23;;;2.83;;
9940;SDS011;5009;50.656;7.188;2022-12-20T14:56:57;4.10;;;2.70;;
9940;SDS011;5009;50.656;7.188;2022-12-20T14:59:27;3.13;;;2.80;;
9940;SDS011;5009;50.656;7.188;2022-12-20T15:01:55;3.13;;;2.83;;
9940;SDS011;5009;50.656;7.188;2022-12-20T15:04:31;3.53;;;2.80;;
9940;SDS011;5009;50.656;7.188;2022-12-20T15:06:59;2.93;;;2.60;;
9940;SDS011;5009;50.656;7.188;2022-12-20T15:09:25;5.53;;;3.10;;
9940;SDS011;5009;50.656;7.188;2022-12-20T15:11:51;4.10;;;2.63;;
9940;SDS011;5009;50.656;7.188;2022-12-20T15:16:59;3.53;;;3.00;;
9940;SDS011;5009;50.656;7.188;2022-12-20T15:19:25;2.77;;;2.57;;
9940;SDS011;5009;50.656;7.188;2022-12-20T15:21:51;3.67;;;2.90;;
9940;SDS011;5009;50.656;7.188;2022-12-20T15:24:19;3.27;;;2.60;;
9940;SDS011;5009;50.656;7.188;2022-12-20T15:26:49;4.87;;;3.07;;
9940;SDS011;5009;50.656;7.188;2022-12-20T15:29:20;3.33;;;3.03;;
9940;SDS011;5009;50.656;7.188;2022-12-20T15:31:47;5.07;;;3.23;;
9940;SDS011;5009;50.656;7.188;2022-12-20T15:37:13;5.87;;;3.10;;
9940;SDS011;5009;50.656;7.188;2022-12-20T15:39:40;3.73;;;3.10;;
9940;SDS011;5009;50.656;7.188;2022-12-20T15:42:05;3.53;;;2.60;;
9940;SDS011;5009;50.656;7.188;2022-12-20T15:44:37;3.63;;;3.00;;
9940;SDS011;5009;50.656;7.188;2022-12-20T15:47:02;4.20;;;2.77;;
9940;SDS011;5009;50.656;7.188;2022-12-20T15:49:29;3.27;;;2.97;;
9940;SDS011;5009;50.656;7.188;2022-12-20T15:51:56;3.00;;;2.70;;
9940;SDS011;5009;50.656;7.188;2022-12-20T15:54:28;4.87;;;3.70;;
9940;SDS011;5009;50.656;7.188;2022-12-20T15:56:56;3.13;;;2.83;;
9940;SDS011;5009;50.656;7.188;2022-12-20T15:59:23;3.20;;;2.90;;
9940;SDS011;5009;50.656;7.188;2022-12-20T16:01:49;3.60;;;3.20;;
9940;SDS011;5009;50.656;7.188;2022-12-20T16:04:15;4.23;;;3.40;;
9940;SDS011;5009;50.656;7.188;2022-12-20T16:06:43;3.80;;;3.03;;
9940;SDS011;5009;50.656;7.188;2022-12-20T16:09:10;3.27;;;2.93;;
9940;SDS011;5009;50.656;7.188;2022-12-20T16:11:36;7.73;;;3.30;;
9940;SDS011;5009;50.656;7.188;2022-12-20T16:14:02;4.33;;;3.27;;
9940;SDS011;5009;50.656;7.188;2022-12-20T16:16:29;4.23;;;3.33;;
9940;SDS011;5009;50.656;7.188;2022-12-20T16:18:56;5.47;;;3.57;;
9940;SDS011;5009;50.656;7.188;2022-12-20T16:21:23;5.77;;;3.13;;
9940;SDS011;5009;50.656;7.188;2022-12-20T16:23:51;6.73;;;2.90;;
9940;SDS011;5009;50.656;7.188;2022-12-20T16:26:19;3.97;;;3.10;;
9940;SDS011;5009;50.656;7.188;2022-12-20T16:28:47;3.70;;;3.23;;
9940;SDS011;5009;50.656;7.188;2022-12-20T16:33:53;4.40;;;3.33;;
9940;SDS011;5009;50.656;7.188;2022-12-20T16:36:19;6.97;;;3.83;;
9940;SDS011;5009;50.656;7.188;2022-12-20T16:38:46;5.83;;;3.57;;
9940;SDS011;5009;50.656;7.188;2022-12-20T16:41:13;3.87;;;3.00;;
9940;SDS011;5009;50.656;7.188;2022-12-20T16:43:41;5.90;;;3.50;;
9940;SDS011;5009;50.656;7.188;2022-12-20T16:46:09;6.17;;;3.43;;
9940;SDS011;5009;50.656;7.188;2022-12-20T16:48:40;4.87;;;3.30;;
9940;SDS011;5009;50.656;7.188;2022-12-20T16:51:26;5.27;;;3.57;;
9940;SDS011;5009;50.656;7.188;2022-12-20T16:53:55;5.40;;;3.60;;
9940;SDS011;5009;50.656;7.188;2022-12-20T16:56:23;6.23;;;3.80;;
9940;SDS011;5009;50.656;7.188;2022-12-20T16:58:49;8.53;;;3.83;;
9940;SDS011;5009;50.656;7.188;2022-12-20T17:01:19;4.70;;;3.30;;
9940;SDS011;5009;50.656;7.188;2022-12-20T17:03:47;4.03;;;3.63;;
9940;SDS011;5009;50.656;7.188;2022-12-20T17:06:14;4.37;;;3.47;;
9940;SDS011;5009;50.656;7.188;2022-12-20T17:08:41;5.03;;;3.90;;
9940;SDS011;5009;50.656;7.188;2022-12-20T17:11:18;4.87;;;3.47;;
9940;SDS011;5009;50.656;7.188;2022-12-20T17:13:46;6.60;;;3.70;;
9940;SDS011;5009;50.656;7.188;2022-12-20T17:16:13;4.77;;;3.57;;
9940;SDS011;5009;50.656;7.188;2022-12-20T17:18:41;6.00;;;3.40;;
9940;SDS011;5009;50.656;7.188;2022-12-20T17:21:20;3.67;;;3.20;;
9940;SDS011;5009;50.656;7.188;2022-12-20T17:23:48;4.27;;;3.33;;
9940;SDS011;5009;50.656;7.188;2022-12-20T17:26:16;4.07;;;3.53;;
9940;SDS011;5009;50.656;7.188;2022-12-20T17:28:44;3.73;;;3.33;;
9940;SDS011;5009;50.656;7.188;2022-12-20T17:31:29;4.00;;;3.50;;
9940;SDS011;5009;50.656;7.188;2022-12-20T17:33:58;4.70;;;3.40;;
9940;SDS011;5009;50.656;7.188;2022-12-20T17:36:26;4.13;;;3.33;;
9940;SDS011;5009;50.656;7.188;2022-12-20T17:38:52;3.90;;;3.40;;
9940;SDS011;5009;50.656;7.188;2022-12-20T17:43:52;4.47;;;3.60;;
9940;SDS011;5009;50.656;7.188;2022-12-20T17:46:19;4.30;;;3.23;;
9940;SDS011;5009;50.656;7.188;2022-12-20T17:48:46;5.43;;;3.93;;
9940;SDS011;5009;50.656;7.188;2022-12-20T17:51:16;5.63;;;3.73;;
9940;SDS011;5009;50.656;7.188;2022-12-20T17:53:47;4.27;;;3.53;;
9940;SDS011;5009;50.656;7.188;2022-12-20T17:56:16;3.93;;;3.53;;
9940;SDS011;5009;50.656;7.188;2022-12-20T17:58:44;3.90;;;3.37;;
9940;SDS011;5009;50.656;7.188;2022-12-20T18:01:23;5.43;;;3.90;;
9940;SDS011;5009;50.656;7.188;2022-12-20T18:03:50;4.47;;;3.30;;
9940;SDS011;5009;50.656;7.188;2022-12-20T18:06:18;5.43;;;3.50;;
9940;SDS011;5009;50.656;7.188;2022-12-20T18:08:48;5.70;;;3.60;;
9940;SDS011;5009;50.656;7.188;2022-12-20T18:11:18;4.37;;;3.60;;
9940;SDS011;5009;50.656;7.188;2022-12-20T18:13:45;4.90;;;3.60;;
9940;SDS011;5009;50.656;7.188;2022-12-20T18:16:13;3.80;;;3.20;;
9940;SDS011;5009;50.656;7.188;2022-12-20T18:18:40;3.80;;;3.50;;
9940;SDS011;5009;50.656;7.188;2022-12-20T18:21:10;5.73;;;3.97;;
9940;SDS011;5009;50.656;7.188;2022-12-20T18:23:38;4.03;;;3.60;;
9940;SDS011;5009;50.656;7.188;2022-12-20T18:26:09;6.37;;;3.83;;
9940;SDS011;5009;50.656;7.188;2022-12-20T18:28:49;3.97;;;3.60;;
9940;SDS011;5009;50.656;7.188;2022-12-20T18:31:19;3.77;;;3.47;;
9940;SDS011;5009;50.656;7.188;2022-12-20T18:33:46;4.10;;;3.70;;
9940;SDS011;5009;50.656;7.188;2022-12-20T18:36:13;5.63;;;3.57;;
9940;SDS011;5009;50.656;7.188;2022-12-20T18:38:44;6.57;;;3.70;;
9940;SDS011;5009;50.656;7.188;2022-12-20T18:41:11;4.70;;;3.90;;
9940;SDS011;5009;50.656;7.188;2022-12-20T18:43:39;5.07;;;3.63;;
9940;SDS011;5009;50.656;7.188;2022-12-20T18:46:09;4.87;;;4.00;;
9940;SDS011;5009;50.656;7.188;2022-12-20T18:48:40;5.37;;;3.67;;
9940;SDS011;5009;50.656;7.188;2022-12-20T18:51:07;5.80;;;3.73;;
9940;SDS011;5009;50.656;7.188;2022-12-20T18:53:33;4.43;;;3.43;;
9940;SDS011;5009;50.656;7.188;2022-12-20T18:56:01;4.13;;;3.20;;
9940;SDS011;5009;50.656;7.188;2022-12-20T18:58:28;5.30;;;3.63;;
9940;SDS011;5009;50.656;7.188;2022-12-20T19:00:58;5.37;;;3.50;;
9940;SDS011;5009;50.656;7.188;2022-12-20T19:03:25;5.73;;;3.50;;
9940;SDS011;5009;50.656;7.188;2022-12-20T19:05:51;3.77;;;3.47;;
9940;SDS011;5009;50.656;7.188;2022-12-20T19:08:18;4.50;;;3.67;;
9940;SDS011;5009;50.656;7.188;2022-12-20T19:10:45;3.40;;;3.10;;
9940;SDS011;5009;50.656;7.188;2022-12-20T19:13:10;5.33;;;3.40;;
9940;SDS011;5009;50.656;7.188;2022-12-20T19:15:36;4.70;;;3.20;;
9940;SDS011;5009;50.656;7.188;2022-12-20T19:18:02;3.30;;;3.03;;
9940;SDS011;5009;50.656;7.188;2022-12-20T19:20:28;4.97;;;3.47;;
9940;SDS011;5009;50.656;7.188;2022-12-20T19:22:53;4.07;;;3.40;;
9940;SDS011;5009;50.656;7.188;2022-12-20T19:25:19;3.57;;;3.07;;
9940;SDS011;5009;50.656;7.188;2022-12-20T19:27:45;4.33;;;3.63;;
9940;SDS011;5009;50.656;7.188;2022-12-20T19:30:12;5.63;;;4.20;;
9940;SDS011;5009;50.656;7.188;2022-12-20T19:32:38;4.40;;;3.80;;
9940;SDS011;5009;50.656;7.188;2022-12-20T19:35:03;3.93;;;3.40;;
9940;SDS011;5009;50.656;7.188;2022-12-20T19:37:29;4.73;;;3.63;;
9940;SDS011;5009;50.656;7.188;2022-12-20T19:39:55;6.57;;;4.07;;
9940;SDS011;5009;50.656;7.188;2022-12-20T19:42:20;4.30;;;3.90;;
9940;SDS011;5009;50.656;7.188;2022-12-20T19:44:46;5.20;;;3.43;;
9940;SDS011;5009;50.656;7.188;2022-12-20T19:47:11;4.20;;;3.57;;
9940;SDS011;5009;50.656;7.188;2022-12-20T19:49:37;4.00;;;3.70;;
9940;SDS011;5009;50.656;7.188;2022-12-20T19:52:03;4.53;;;3.80;;
9940;SDS011;5009;50.656;7.188;2022-12-20T19:54:30;4.53;;;3.30;;
9940;SDS011;5009;50.656;7.188;2022-12-20T19:56:55;3.40;;;3.10;;
9940;SDS011;5009;50.656;7.188;2022-12-20T19:59:22;4.47;;;3.70;;
9940;SDS011;5009;50.656;7.188;2022-12-20T20:01:48;3.60;;;3.30;;
9940;SDS011;5009;50.656;7.188;2022-12-20T20:04:14;6.97;;;3.87;;
9940;SDS011;5009;50.656;7.188;2022-12-20T20:06:39;7.43;;;3.77;;
9940;SDS011;5009;50.656;7.188;2022-12-20T20:09:05;4.80;;;3.63;;
9940;SDS011;5009;50.656;7.188;2022-12-20T20:11:31;4.00;;;3.70;;
9940;SDS011;5009;50.656;7.188;2022-12-20T20:13:57;4.33;;;3.57;;
9940;SDS011;5009;50.656;7.188;2022-12-20T20:16:24;4.03;;;3.43;;
9940;SDS011;5009;50.656;7.188;2022-12-20T20:18:50;4.73;;;3.40;;
9940;SDS011;5009;50.656;7.188;2022-12-20T20:21:16;4.67;;;3.53;;
9940;SDS011;5009;50.656;7.188;2022-12-20T20:23:45;3.60;;;3.30;;
9940;SDS011;5009;50.656;7.188;2022-12-20T20:26:12;5.37;;;3.83;;
9940;SDS011;5009;50.656;7.188;2022-12-20T20:28:40;4.67;;;3.50;;
9940;SDS011;5009;50.656;7.188;2022-12-20T20:31:09;4.10;;;3.70;;
9940;SDS011;5009;50.656;7.188;2022-12-20T20:33:36;4.53;;;3.53;;
9940;SDS011;5009;50.656;7.188;2022-12-20T20:36:02;4.63;;;3.20;;
9940;SDS011;5009;50.656;7.188;2022-12-20T20:38:28;3.53;;;3.23;;
9940;SDS011;5009;50.656;7.188;2022-12-20T20:40:56;4.83;;;3.30;;
9940;SDS011;5009;50.656;7.188;2022-12-20T20:43:22;4.10;;;3.80;;
9940;SDS011;5009;50.656;7.188;2022-12-20T20:45:48;5.00;;;3.50;;
9940;SDS011;5009;50.656;7.188;2022-12-20T20:48:14;7.10;;;3.70;;
9940;SDS011;5009;50.656;7.188;2022-12-20T20:50:40;5.40;;;3.40;;
9940;SDS011;5009;50.656;7.188;2022-12-20T20:53:07;6.27;;;3.27;;
9940;SDS011;5009;50.656;7.188;2022-12-20T20:55:33;6.97;;;3.70;;
9940;SDS011;5009;50.656;7.188;2022-12-20T20:57:59;4.50;;;3.83;;
9940;SDS011;5009;50.656;7.188;2022-12-20T21:00:25;3.43;;;3.13;;
9940;SDS011;5009;50.656;7.188;2022-12-20T21:02:53;5.80;;;3.50;;
9940;SDS011;5009;50.656;7.188;2022-12-20T21:05:18;5.20;;;3.47;;
9940;SDS011;5009;50.656;7.188;2022-12-20T21:07:44;3.27;;;2.97;;
9940;SDS011;5009;50.656;7.188;2022-12-20T21:10:09;4.77;;;3.20;;
9940;SDS011;5009;50.656;7.188;2022-12-20T21:12:35;3.63;;;3.10;;